Yale, Iowa
Current Conditions -  °F | °C
As of 6:55 PM on Saturday 20 Dec 2014 (Local Time) from KPRO Reporting Station
Haze Haze  
Wind Chill: -2°   Ceiling: 1100
Heat Index:   Visibility: 5mi
Dew Point:   Wind: 7mph
Humidity: 100%   Direction: 150°SSE
Pressure: 30.11"   Gusts: NA
Location:  41.78°N, 94.36°W
Report Text: KPRO 210055Z AUTO 15006KT 5SM BR OVC011 01/01 A3011 RMK AO2 T00100010
Loading
Personal Weather Stations






























Interactive Weather Map New forecast layout! Learn more

10-Day Weather Forecast

Advertisements
Track Severe Weather on mobile